sensor_id;sensor_type;location;lat;lon;timestamp;P1;durP1;ratioP1;P2;durP2;ratioP2
2610;SDS011;5612;51.134;17.058;2023-01-01T00:00:48;22.93;;;20.53;;
2610;SDS011;5612;51.134;17.058;2023-01-01T00:03:17;21.03;;;19.03;;
2610;SDS011;5612;51.134;17.058;2023-01-01T00:05:46;17.07;;;15.57;;
2610;SDS011;5612;51.134;17.058;2023-01-01T00:08:15;15.70;;;14.20;;
2610;SDS011;5612;51.134;17.058;2023-01-01T00:10:44;15.23;;;13.73;;
2610;SDS011;5612;51.134;17.058;2023-01-01T00:13:12;13.07;;;11.70;;
2610;SDS011;5612;51.134;17.058;2023-01-01T00:15:42;16.73;;;11.10;;
2610;SDS011;5612;51.134;17.058;2023-01-01T00:18:11;9.80;;;7.57;;
2610;SDS011;5612;51.134;17.058;2023-01-01T00:20:41;6.40;;;5.80;;
2610;SDS011;5612;51.134;17.058;2023-01-01T00:23:10;6.17;;;5.57;;
2610;SDS011;5612;51.134;17.058;2023-01-01T00:25:39;5.00;;;4.40;;
2610;SDS011;5612;51.134;17.058;2023-01-01T00:28:08;6.27;;;5.23;;
2610;SDS011;5612;51.134;17.058;2023-01-01T00:30:39;5.03;;;4.63;;
2610;SDS011;5612;51.134;17.058;2023-01-01T00:33:10;5.83;;;4.37;;
2610;SDS011;5612;51.134;17.058;2023-01-01T00:35:38;4.80;;;4.40;;
2610;SDS011;5612;51.134;17.058;2023-01-01T00:38:07;5.07;;;4.67;;
2610;SDS011;5612;51.134;17.058;2023-01-01T00:40:36;4.47;;;3.90;;
2610;SDS011;5612;51.134;17.058;2023-01-01T00:43:05;4.27;;;3.83;;
2610;SDS011;5612;51.134;17.058;2023-01-01T00:45:34;4.77;;;4.40;;
2610;SDS011;5612;51.134;17.058;2023-01-01T00:48:03;4.57;;;4.17;;
2610;SDS011;5612;51.134;17.058;2023-01-01T00:50:33;4.43;;;3.90;;
2610;SDS011;5612;51.134;17.058;2023-01-01T00:53:02;4.33;;;3.97;;
2610;SDS011;5612;51.134;17.058;2023-01-01T00:55:31;4.17;;;3.73;;
2610;SDS011;5612;51.134;17.058;2023-01-01T00:57:59;4.00;;;3.70;;
2610;SDS011;5612;51.134;17.058;2023-01-01T01:00:28;3.93;;;3.43;;
2610;SDS011;5612;51.134;17.058;2023-01-01T01:02:57;4.37;;;3.97;;
2610;SDS011;5612;51.134;17.058;2023-01-01T01:05:26;4.30;;;4.00;;
2610;SDS011;5612;51.134;17.058;2023-01-01T01:07:56;4.40;;;4.10;;
2610;SDS011;5612;51.134;17.058;2023-01-01T01:10:25;4.17;;;3.77;;
2610;SDS011;5612;51.134;17.058;2023-01-01T01:12:54;3.27;;;3.07;;
2610;SDS011;5612;51.134;17.058;2023-01-01T01:15:23;4.00;;;3.70;;
2610;SDS011;5612;51.134;17.058;2023-01-01T01:17:52;3.73;;;3.43;;
2610;SDS011;5612;51.134;17.058;2023-01-01T01:20:21;2.33;;;2.23;;
2610;SDS011;5612;51.134;17.058;2023-01-01T01:22:50;5.80;;;2.90;;
2610;SDS011;5612;51.134;17.058;2023-01-01T01:25:20;3.10;;;2.90;;
2610;SDS011;5612;51.134;17.058;2023-01-01T01:27:49;3.30;;;3.00;;
2610;SDS011;5612;51.134;17.058;2023-01-01T01:30:17;3.70;;;3.20;;
2610;SDS011;5612;51.134;17.058;2023-01-01T01:32:46;3.63;;;2.93;;
2610;SDS011;5612;51.134;17.058;2023-01-01T01:35:15;12.20;;;3.60;;
2610;SDS011;5612;51.134;17.058;2023-01-01T01:37:44;3.30;;;3.00;;
2610;SDS011;5612;51.134;17.058;2023-01-01T01:40:14;4.13;;;3.83;;
2610;SDS011;5612;51.134;17.058;2023-01-01T01:42:46;3.67;;;3.30;;
2610;SDS011;5612;51.134;17.058;2023-01-01T01:45:15;4.23;;;3.30;;
2610;SDS011;5612;51.134;17.058;2023-01-01T01:47:45;4.27;;;3.93;;
2610;SDS011;5612;51.134;17.058;2023-01-01T01:50:20;4.57;;;3.40;;
2610;SDS011;5612;51.134;17.058;2023-01-01T01:53:02;3.27;;;3.07;;
2610;SDS011;5612;51.134;17.058;2023-01-01T01:55:35;3.60;;;3.30;;
2610;SDS011;5612;51.134;17.058;2023-01-01T01:58:10;3.07;;;2.87;;
2610;SDS011;5612;51.134;17.058;2023-01-01T02:00:40;4.40;;;3.03;;
2610;SDS011;5612;51.134;17.058;2023-01-01T02:03:10;2.90;;;2.70;;
2610;SDS011;5612;51.134;17.058;2023-01-01T02:05:41;3.80;;;3.50;;
2610;SDS011;5612;51.134;17.058;2023-01-01T02:08:16;3.13;;;2.90;;
2610;SDS011;5612;51.134;17.058;2023-01-01T02:10:46;3.13;;;2.80;;
2610;SDS011;5612;51.134;17.058;2023-01-01T02:13:16;3.60;;;3.30;;
2610;SDS011;5612;51.134;17.058;2023-01-01T02:15:47;3.23;;;2.93;;
2610;SDS011;5612;51.134;17.058;2023-01-01T02:18:21;2.87;;;2.67;;
2610;SDS011;5612;51.134;17.058;2023-01-01T02:20:53;3.13;;;2.93;;
2610;SDS011;5612;51.134;17.058;2023-01-01T02:23:40;4.17;;;2.67;;
2610;SDS011;5612;51.134;17.058;2023-01-01T02:26:28;3.43;;;2.70;;
2610;SDS011;5612;51.134;17.058;2023-01-01T02:29:11;2.73;;;2.53;;
2610;SDS011;5612;51.134;17.058;2023-01-01T02:31:52;4.87;;;2.83;;
2610;SDS011;5612;51.134;17.058;2023-01-01T02:34:26;3.70;;;3.37;;
2610;SDS011;5612;51.134;17.058;2023-01-01T02:36:59;3.50;;;2.63;;
2610;SDS011;5612;51.134;17.058;2023-01-01T02:39:32;2.83;;;2.63;;
2610;SDS011;5612;51.134;17.058;2023-01-01T02:42:06;2.83;;;2.63;;
2610;SDS011;5612;51.134;17.058;2023-01-01T02:44:38;3.50;;;2.63;;
2610;SDS011;5612;51.134;17.058;2023-01-01T02:47:11;2.97;;;2.77;;
2610;SDS011;5612;51.134;17.058;2023-01-01T02:49:45;2.73;;;2.53;;
2610;SDS011;5612;51.134;17.058;2023-01-01T02:52:20;3.20;;;3.00;;
2610;SDS011;5612;51.134;17.058;2023-01-01T02:55:10;3.00;;;2.80;;
2610;SDS011;5612;51.134;17.058;2023-01-01T02:57:48;3.57;;;3.17;;
2610;SDS011;5612;51.134;17.058;2023-01-01T03:00:23;3.00;;;2.80;;
2610;SDS011;5612;51.134;17.058;2023-01-01T03:02:58;2.30;;;1.97;;
2610;SDS011;5612;51.134;17.058;2023-01-01T03:05:39;2.60;;;2.13;;
2610;SDS011;5612;51.134;17.058;2023-01-01T03:08:24;2.73;;;2.53;;
2610;SDS011;5612;51.134;17.058;2023-01-01T03:11:07;3.10;;;2.73;;
2610;SDS011;5612;51.134;17.058;2023-01-01T03:13:41;3.33;;;3.13;;
2610;SDS011;5612;51.134;17.058;2023-01-01T03:16:17;2.70;;;2.50;;
2610;SDS011;5612;51.134;17.058;2023-01-01T03:18:51;3.43;;;3.23;;
2610;SDS011;5612;51.134;17.058;2023-01-01T03:21:41;3.23;;;2.93;;
2610;SDS011;5612;51.134;17.058;2023-01-01T03:24:12;3.47;;;2.90;;
2610;SDS011;5612;51.134;17.058;2023-01-01T03:26:46;3.53;;;3.33;;
2610;SDS011;5612;51.134;17.058;2023-01-01T03:29:17;3.73;;;3.20;;
2610;SDS011;5612;51.134;17.058;2023-01-01T03:31:50;5.03;;;3.90;;
2610;SDS011;5612;51.134;17.058;2023-01-01T03:34:24;4.10;;;3.80;;
2610;SDS011;5612;51.134;17.058;2023-01-01T03:36:59;4.13;;;3.73;;
2610;SDS011;5612;51.134;17.058;2023-01-01T03:39:34;4.23;;;3.83;;
2610;SDS011;5612;51.134;17.058;2023-01-01T03:42:10;3.60;;;3.30;;
2610;SDS011;5612;51.134;17.058;2023-01-01T03:44:45;3.50;;;3.20;;
2610;SDS011;5612;51.134;17.058;2023-01-01T03:47:19;3.83;;;3.53;;
2610;SDS011;5612;51.134;17.058;2023-01-01T03:49:47;3.07;;;2.87;;
2610;SDS011;5612;51.134;17.058;2023-01-01T03:52:29;3.53;;;3.23;;
2610;SDS011;5612;51.134;17.058;2023-01-01T03:55:05;4.70;;;3.93;;
2610;SDS011;5612;51.134;17.058;2023-01-01T03:57:41;11.00;;;3.73;;
2610;SDS011;5612;51.134;17.058;2023-01-01T04:00:16;4.13;;;3.60;;
2610;SDS011;5612;51.134;17.058;2023-01-01T04:02:49;3.67;;;3.33;;
2610;SDS011;5612;51.134;17.058;2023-01-01T04:05:22;4.70;;;3.27;;
2610;SDS011;5612;51.134;17.058;2023-01-01T04:07:53;5.33;;;3.53;;
2610;SDS011;5612;51.134;17.058;2023-01-01T04:10:22;3.20;;;2.93;;
2610;SDS011;5612;51.134;17.058;2023-01-01T04:12:52;11.20;;;3.63;;
2610;SDS011;5612;51.134;17.058;2023-01-01T04:15:25;3.93;;;3.60;;
2610;SDS011;5612;51.134;17.058;2023-01-01T04:17:56;3.53;;;3.23;;
2610;SDS011;5612;51.134;17.058;2023-01-01T04:20:25;3.57;;;3.27;;
2610;SDS011;5612;51.134;17.058;2023-01-01T04:22:54;4.07;;;3.20;;
2610;SDS011;5612;51.134;17.058;2023-01-01T04:25:23;3.10;;;2.80;;
2610;SDS011;5612;51.134;17.058;2023-01-01T04:27:53;2.73;;;2.53;;
2610;SDS011;5612;51.134;17.058;2023-01-01T04:30:23;4.10;;;3.70;;
2610;SDS011;5612;51.134;17.058;2023-01-01T04:32:54;3.57;;;3.27;;
2610;SDS011;5612;51.134;17.058;2023-01-01T04:35:24;4.37;;;3.23;;
2610;SDS011;5612;51.134;17.058;2023-01-01T04:37:53;3.20;;;2.93;;
2610;SDS011;5612;51.134;17.058;2023-01-01T04:40:22;3.50;;;3.20;;
2610;SDS011;5612;51.134;17.058;2023-01-01T04:42:52;3.63;;;3.07;;
2610;SDS011;5612;51.134;17.058;2023-01-01T04:45:21;4.03;;;3.37;;
2610;SDS011;5612;51.134;17.058;2023-01-01T04:47:50;3.67;;;3.37;;
2610;SDS011;5612;51.134;17.058;2023-01-01T04:50:20;3.20;;;2.90;;
2610;SDS011;5612;51.134;17.058;2023-01-01T04:52:49;3.67;;;3.33;;
2610;SDS011;5612;51.134;17.058;2023-01-01T04:55:19;4.03;;;3.73;;
2610;SDS011;5612;51.134;17.058;2023-01-01T04:57:48;4.87;;;3.47;;
2610;SDS011;5612;51.134;17.058;2023-01-01T05:00:17;3.23;;;2.90;;
2610;SDS011;5612;51.134;17.058;2023-01-01T05:02:48;3.30;;;3.00;;
2610;SDS011;5612;51.134;17.058;2023-01-01T05:05:17;4.23;;;3.33;;
2610;SDS011;5612;51.134;17.058;2023-01-01T05:07:51;3.83;;;3.53;;
2610;SDS011;5612;51.134;17.058;2023-01-01T05:10:19;6.90;;;3.63;;
2610;SDS011;5612;51.134;17.058;2023-01-01T05:12:48;3.00;;;2.80;;
2610;SDS011;5612;51.134;17.058;2023-01-01T05:15:17;3.27;;;3.07;;
2610;SDS011;5612;51.134;17.058;2023-01-01T05:17:46;4.33;;;3.60;;
2610;SDS011;5612;51.134;17.058;2023-01-01T05:20:15;3.13;;;2.90;;
2610;SDS011;5612;51.134;17.058;2023-01-01T05:22:45;3.80;;;3.23;;
2610;SDS011;5612;51.134;17.058;2023-01-01T05:25:14;4.33;;;3.33;;
2610;SDS011;5612;51.134;17.058;2023-01-01T05:27:43;3.40;;;3.10;;
2610;SDS011;5612;51.134;17.058;2023-01-01T05:30:12;3.60;;;3.30;;
2610;SDS011;5612;51.134;17.058;2023-01-01T05:32:41;3.47;;;3.20;;
2610;SDS011;5612;51.134;17.058;2023-01-01T05:35:10;3.33;;;2.97;;
2610;SDS011;5612;51.134;17.058;2023-01-01T05:37:38;4.00;;;3.60;;
2610;SDS011;5612;51.134;17.058;2023-01-01T05:40:10;3.47;;;3.27;;
2610;SDS011;5612;51.134;17.058;2023-01-01T05:42:39;3.83;;;3.53;;
2610;SDS011;5612;51.134;17.058;2023-01-01T05:45:09;3.10;;;2.90;;
2610;SDS011;5612;51.134;17.058;2023-01-01T05:47:38;3.47;;;3.00;;
2610;SDS011;5612;51.134;17.058;2023-01-01T05:50:07;3.27;;;2.97;;
2610;SDS011;5612;51.134;17.058;2023-01-01T05:52:35;4.07;;;3.77;;
2610;SDS011;5612;51.134;17.058;2023-01-01T05:55:04;4.27;;;3.87;;
2610;SDS011;5612;51.134;17.058;2023-01-01T05:57:35;3.57;;;3.27;;
2610;SDS011;5612;51.134;17.058;2023-01-01T06:00:04;3.70;;;3.43;;
2610;SDS011;5612;51.134;17.058;2023-01-01T06:02:34;3.17;;;2.93;;
2610;SDS011;5612;51.134;17.058;2023-01-01T06:05:03;3.60;;;3.30;;
2610;SDS011;5612;51.134;17.058;2023-01-01T06:07:33;4.63;;;3.70;;
2610;SDS011;5612;51.134;17.058;2023-01-01T06:10:01;2.90;;;2.63;;
2610;SDS011;5612;51.134;17.058;2023-01-01T06:12:31;4.00;;;3.60;;
2610;SDS011;5612;51.134;17.058;2023-01-01T06:15:01;4.40;;;3.03;;
2610;SDS011;5612;51.134;17.058;2023-01-01T06:17:32;3.40;;;3.10;;
2610;SDS011;5612;51.134;17.058;2023-01-01T06:20:00;3.70;;;3.40;;
2610;SDS011;5612;51.134;17.058;2023-01-01T06:22:29;2.87;;;2.67;;
2610;SDS011;5612;51.134;17.058;2023-01-01T06:24:58;3.20;;;2.90;;
2610;SDS011;5612;51.134;17.058;2023-01-01T06:27:27;3.87;;;3.57;;
2610;SDS011;5612;51.134;17.058;2023-01-01T06:29:55;3.90;;;3.60;;
2610;SDS011;5612;51.134;17.058;2023-01-01T06:32:25;3.40;;;3.10;;
2610;SDS011;5612;51.134;17.058;2023-01-01T06:34:54;6.10;;;3.00;;
2610;SDS011;5612;51.134;17.058;2023-01-01T06:37:23;3.30;;;3.10;;
2610;SDS011;5612;51.134;17.058;2023-01-01T06:39:52;5.30;;;3.60;;
2610;SDS011;5612;51.134;17.058;2023-01-01T06:42:21;3.70;;;3.23;;
2610;SDS011;5612;51.134;17.058;2023-01-01T06:44:57;2.90;;;2.70;;
2610;SDS011;5612;51.134;17.058;2023-01-01T06:47:27;3.37;;;3.13;;
2610;SDS011;5612;51.134;17.058;2023-01-01T06:49:56;5.73;;;3.50;;
2610;SDS011;5612;51.134;17.058;2023-01-01T06:52:25;3.30;;;2.93;;
2610;SDS011;5612;51.134;17.058;2023-01-01T06:54:54;4.33;;;3.43;;
2610;SDS011;5612;51.134;17.058;2023-01-01T06:57:23;4.70;;;4.27;;
2610;SDS011;5612;51.134;17.058;2023-01-01T06:59:52;3.33;;;3.00;;
2610;SDS011;5612;51.134;17.058;2023-01-01T07:02:20;5.07;;;3.40;;
2610;SDS011;5612;51.134;17.058;2023-01-01T07:04:51;4.07;;;3.77;;
2610;SDS011;5612;51.134;17.058;2023-01-01T07:07:20;4.00;;;3.33;;
2610;SDS011;5612;51.134;17.058;2023-01-01T07:09:48;3.03;;;2.73;;
2610;SDS011;5612;51.134;17.058;2023-01-01T07:12:17;3.67;;;3.23;;
2610;SDS011;5612;51.134;17.058;2023-01-01T07:14:46;4.67;;;3.50;;
2610;SDS011;5612;51.134;17.058;2023-01-01T07:17:15;3.80;;;3.50;;
2610;SDS011;5612;51.134;17.058;2023-01-01T07:19:43;3.97;;;3.27;;
2610;SDS011;5612;51.134;17.058;2023-01-01T07:22:13;3.93;;;3.57;;
2610;SDS011;5612;51.134;17.058;2023-01-01T07:24:42;3.50;;;3.20;;
2610;SDS011;5612;51.134;17.058;2023-01-01T07:27:11;3.70;;;3.30;;
2610;SDS011;5612;51.134;17.058;2023-01-01T07:29:39;3.60;;;3.40;;
2610;SDS011;5612;51.134;17.058;2023-01-01T07:32:11;3.90;;;3.60;;
2610;SDS011;5612;51.134;17.058;2023-01-01T07:34:40;4.23;;;3.43;;
2610;SDS011;5612;51.134;17.058;2023-01-01T07:37:17;3.70;;;3.43;;
2610;SDS011;5612;51.134;17.058;2023-01-01T07:39:50;3.23;;;2.93;;
2610;SDS011;5612;51.134;17.058;2023-01-01T07:42:19;3.70;;;3.40;;
2610;SDS011;5612;51.134;17.058;2023-01-01T07:44:48;3.80;;;3.60;;
2610;SDS011;5612;51.134;17.058;2023-01-01T07:47:18;5.30;;;3.60;;
2610;SDS011;5612;51.134;17.058;2023-01-01T07:49:50;4.97;;;4.30;;
2610;SDS011;5612;51.134;17.058;2023-01-01T07:52:20;3.33;;;3.03;;
2610;SDS011;5612;51.134;17.058;2023-01-01T07:54:49;4.03;;;3.07;;
2610;SDS011;5612;51.134;17.058;2023-01-01T07:57:18;3.70;;;3.10;;
2610;SDS011;5612;51.134;17.058;2023-01-01T07:59:47;3.90;;;3.43;;
2610;SDS011;5612;51.134;17.058;2023-01-01T08:02:15;3.77;;;3.10;;
2610;SDS011;5612;51.134;17.058;2023-01-01T08:04:44;3.50;;;3.07;;
2610;SDS011;5612;51.134;17.058;2023-01-01T08:07:13;4.00;;;3.13;;
2610;SDS011;5612;51.134;17.058;2023-01-01T08:09:43;3.57;;;3.00;;
2610;SDS011;5612;51.134;17.058;2023-01-01T08:12:12;3.20;;;3.00;;
2610;SDS011;5612;51.134;17.058;2023-01-01T08:14:41;3.33;;;3.07;;
2610;SDS011;5612;51.134;17.058;2023-01-01T08:17:09;5.20;;;3.30;;
2610;SDS011;5612;51.134;17.058;2023-01-01T08:19:38;5.10;;;2.90;;
2610;SDS011;5612;51.134;17.058;2023-01-01T08:22:07;4.23;;;3.10;;
2610;SDS011;5612;51.134;17.058;2023-01-01T08:24:35;4.57;;;2.87;;
2610;SDS011;5612;51.134;17.058;2023-01-01T08:27:06;3.33;;;3.03;;
2610;SDS011;5612;51.134;17.058;2023-01-01T08:29:35;5.97;;;3.30;;
2610;SDS011;5612;51.134;17.058;2023-01-01T08:32:04;4.27;;;2.87;;
2610;SDS011;5612;51.134;17.058;2023-01-01T08:34:32;3.77;;;3.23;;
2610;SDS011;5612;51.134;17.058;2023-01-01T08:37:01;3.03;;;2.63;;
2610;SDS011;5612;51.134;17.058;2023-01-01T08:39:30;3.20;;;2.73;;
2610;SDS011;5612;51.134;17.058;2023-01-01T08:41:59;4.33;;;2.90;;
2610;SDS011;5612;51.134;17.058;2023-01-01T08:44:37;3.53;;;3.23;;
2610;SDS011;5612;51.134;17.058;2023-01-01T08:47:05;3.60;;;3.13;;
2610;SDS011;5612;51.134;17.058;2023-01-01T08:49:42;6.07;;;3.03;;
2610;SDS011;5612;51.134;17.058;2023-01-01T08:52:11;4.27;;;2.97;;
2610;SDS011;5612;51.134;17.058;2023-01-01T08:54:40;4.50;;;2.70;;
2610;SDS011;5612;51.134;17.058;2023-01-01T08:57:10;3.33;;;2.73;;
2610;SDS011;5612;51.134;17.058;2023-01-01T08:59:40;5.37;;;3.30;;
2610;SDS011;5612;51.134;17.058;2023-01-01T09:02:09;6.77;;;3.17;;
2610;SDS011;5612;51.134;17.058;2023-01-01T09:04:39;3.33;;;2.60;;
2610;SDS011;5612;51.134;17.058;2023-01-01T09:07:08;3.07;;;2.57;;
2610;SDS011;5612;51.134;17.058;2023-01-01T09:09:36;2.97;;;2.60;;
2610;SDS011;5612;51.134;17.058;2023-01-01T09:12:05;4.47;;;3.23;;
2610;SDS011;5612;51.134;17.058;2023-01-01T09:14:35;3.30;;;3.00;;
2610;SDS011;5612;51.134;17.058;2023-01-01T09:17:05;3.70;;;3.20;;
2610;SDS011;5612;51.134;17.058;2023-01-01T09:19:34;3.57;;;3.27;;
2610;SDS011;5612;51.134;17.058;2023-01-01T09:22:03;3.07;;;2.87;;
2610;SDS011;5612;51.134;17.058;2023-01-01T09:24:35;3.00;;;2.70;;
2610;SDS011;5612;51.134;17.058;2023-01-01T09:27:04;3.43;;;2.50;;
2610;SDS011;5612;51.134;17.058;2023-01-01T09:29:33;2.77;;;2.57;;
2610;SDS011;5612;51.134;17.058;2023-01-01T09:32:02;4.20;;;3.00;;
2610;SDS011;5612;51.134;17.058;2023-01-01T09:34:33;3.67;;;3.37;;
2610;SDS011;5612;51.134;17.058;2023-01-01T09:37:01;5.63;;;3.30;;
2610;SDS011;5612;51.134;17.058;2023-01-01T09:39:31;4.53;;;3.23;;
2610;SDS011;5612;51.134;17.058;2023-01-01T09:42:05;3.30;;;2.83;;
2610;SDS011;5612;51.134;17.058;2023-01-01T09:44:52;4.17;;;3.87;;
2610;SDS011;5612;51.134;17.058;2023-01-01T09:47:33;3.00;;;2.70;;
2610;SDS011;5612;51.134;17.058;2023-01-01T09:50:10;4.00;;;2.93;;
2610;SDS011;5612;51.134;17.058;2023-01-01T09:52:43;3.50;;;3.20;;
2610;SDS011;5612;51.134;17.058;2023-01-01T09:55:20;3.93;;;2.70;;
2610;SDS011;5612;51.134;17.058;2023-01-01T09:57:53;4.60;;;3.37;;
2610;SDS011;5612;51.134;17.058;2023-01-01T10:00:23;3.07;;;2.87;;
2610;SDS011;5612;51.134;17.058;2023-01-01T10:05:51;3.10;;;2.77;;
2610;SDS011;5612;51.134;17.058;2023-01-01T10:08:29;5.70;;;3.67;;
2610;SDS011;5612;51.134;17.058;2023-01-01T10:11:10;3.37;;;3.07;;
2610;SDS011;5612;51.134;17.058;2023-01-01T10:13:46;3.03;;;2.73;;
2610;SDS011;5612;51.134;17.058;2023-01-01T10:16:21;3.77;;;3.43;;
2610;SDS011;5612;51.134;17.058;2023-01-01T10:18:58;4.00;;;3.70;;
2610;SDS011;5612;51.134;17.058;2023-01-01T10:21:35;3.10;;;2.67;;
2610;SDS011;5612;51.134;17.058;2023-01-01T10:24:16;3.37;;;3.00;;
2610;SDS011;5612;51.134;17.058;2023-01-01T10:27:02;4.90;;;4.50;;
2610;SDS011;5612;51.134;17.058;2023-01-01T10:29:36;3.73;;;3.30;;
2610;SDS011;5612;51.134;17.058;2023-01-01T10:32:19;3.00;;;2.73;;
2610;SDS011;5612;51.134;17.058;2023-01-01T10:34:53;4.77;;;3.40;;
2610;SDS011;5612;51.134;17.058;2023-01-01T10:37:25;3.47;;;3.17;;
2610;SDS011;5612;51.134;17.058;2023-01-01T10:39:59;3.70;;;3.40;;
2610;SDS011;5612;51.134;17.058;2023-01-01T10:42:32;3.57;;;3.27;;
2610;SDS011;5612;51.134;17.058;2023-01-01T10:45:01;4.03;;;3.70;;
2610;SDS011;5612;51.134;17.058;2023-01-01T10:47:31;3.33;;;3.03;;
2610;SDS011;5612;51.134;17.058;2023-01-01T10:50:00;3.43;;;2.77;;
2610;SDS011;5612;51.134;17.058;2023-01-01T10:52:35;3.93;;;3.50;;
2610;SDS011;5612;51.134;17.058;2023-01-01T10:55:09;3.47;;;3.20;;
2610;SDS011;5612;51.134;17.058;2023-01-01T10:57:47;3.87;;;3.47;;
2610;SDS011;5612;51.134;17.058;2023-01-01T11:00:23;3.07;;;2.87;;
2610;SDS011;5612;51.134;17.058;2023-01-01T11:03:04;3.90;;;3.60;;
2610;SDS011;5612;51.134;17.058;2023-01-01T11:05:48;3.40;;;3.20;;
2610;SDS011;5612;51.134;17.058;2023-01-01T11:08:29;3.80;;;3.43;;
2610;SDS011;5612;51.134;17.058;2023-01-01T11:11:00;3.80;;;3.50;;
2610;SDS011;5612;51.134;17.058;2023-01-01T11:13:30;3.97;;;3.67;;
2610;SDS011;5612;51.134;17.058;2023-01-01T11:16:00;5.87;;;3.80;;
2610;SDS011;5612;51.134;17.058;2023-01-01T11:18:29;4.47;;;4.00;;
2610;SDS011;5612;51.134;17.058;2023-01-01T11:21:03;4.20;;;3.90;;
2610;SDS011;5612;51.134;17.058;2023-01-01T11:23:35;4.50;;;4.10;;
2610;SDS011;5612;51.134;17.058;2023-01-01T11:26:06;3.97;;;3.67;;
2610;SDS011;5612;51.134;17.058;2023-01-01T11:28:58;4.37;;;4.07;;
2610;SDS011;5612;51.134;17.058;2023-01-01T11:31:29;4.33;;;4.00;;
2610;SDS011;5612;51.134;17.058;2023-01-01T11:34:03;3.90;;;3.50;;
2610;SDS011;5612;51.134;17.058;2023-01-01T11:36:47;4.37;;;4.00;;
2610;SDS011;5612;51.134;17.058;2023-01-01T11:39:21;3.83;;;3.53;;
2610;SDS011;5612;51.134;17.058;2023-01-01T11:41:54;5.03;;;4.63;;
2610;SDS011;5612;51.134;17.058;2023-01-01T11:44:29;4.60;;;4.20;;
2610;SDS011;5612;51.134;17.058;2023-01-01T11:47:01;4.40;;;4.10;;
2610;SDS011;5612;51.134;17.058;2023-01-01T11:49:33;4.00;;;3.70;;
2610;SDS011;5612;51.134;17.058;2023-01-01T11:52:05;5.20;;;4.70;;
2610;SDS011;5612;51.134;17.058;2023-01-01T11:55:01;4.33;;;3.80;;
2610;SDS011;5612;51.134;17.058;2023-01-01T11:57:37;5.07;;;3.90;;
2610;SDS011;5612;51.134;17.058;2023-01-01T12:00:11;4.87;;;4.47;;
2610;SDS011;5612;51.134;17.058;2023-01-01T12:02:43;3.83;;;3.53;;
2610;SDS011;5612;51.134;17.058;2023-01-01T12:05:21;4.60;;;4.20;;
2610;SDS011;5612;51.134;17.058;2023-01-01T12:07:57;5.00;;;4.60;;
2610;SDS011;5612;51.134;17.058;2023-01-01T12:10:32;3.90;;;3.57;;
2610;SDS011;5612;51.134;17.058;2023-01-01T12:13:10;5.30;;;4.80;;
2610;SDS011;5612;51.134;17.058;2023-01-01T12:15:46;5.13;;;4.73;;
2610;SDS011;5612;51.134;17.058;2023-01-01T12:18:21;4.57;;;4.10;;
2610;SDS011;5612;51.134;17.058;2023-01-01T12:20:56;4.30;;;4.00;;
2610;SDS011;5612;51.134;17.058;2023-01-01T12:23:29;3.60;;;3.40;;
2610;SDS011;5612;51.134;17.058;2023-01-01T12:26:03;4.40;;;4.00;;
2610;SDS011;5612;51.134;17.058;2023-01-01T12:28:43;4.57;;;4.17;;
2610;SDS011;5612;51.134;17.058;2023-01-01T12:31:52;4.20;;;3.80;;
2610;SDS011;5612;51.134;17.058;2023-01-01T12:34:29;6.50;;;4.13;;
2610;SDS011;5612;51.134;17.058;2023-01-01T12:37:05;5.27;;;3.90;;
2610;SDS011;5612;51.134;17.058;2023-01-01T12:43:02;4.27;;;3.87;;
2610;SDS011;5612;51.134;17.058;2023-01-01T12:45:37;6.80;;;4.13;;
2610;SDS011;5612;51.134;17.058;2023-01-01T12:48:37;6.30;;;4.13;;
2610;SDS011;5612;51.134;17.058;2023-01-01T12:51:21;4.93;;;3.67;;
2610;SDS011;5612;51.134;17.058;2023-01-01T12:54:01;5.70;;;4.27;;
2610;SDS011;5612;51.134;17.058;2023-01-01T12:56:50;4.23;;;3.60;;
2610;SDS011;5612;51.134;17.058;2023-01-01T12:59:27;5.10;;;4.40;;
2610;SDS011;5612;51.134;17.058;2023-01-01T13:02:02;6.27;;;4.53;;
2610;SDS011;5612;51.134;17.058;2023-01-01T13:04:57;5.37;;;4.33;;
2610;SDS011;5612;51.134;17.058;2023-01-01T13:07:47;6.00;;;4.57;;
2610;SDS011;5612;51.134;17.058;2023-01-01T13:10:28;6.90;;;4.50;;
2610;SDS011;5612;51.134;17.058;2023-01-01T13:13:11;5.70;;;5.10;;
2610;SDS011;5612;51.134;17.058;2023-01-01T13:15:48;5.40;;;4.90;;
2610;SDS011;5612;51.134;17.058;2023-01-01T13:18:21;5.10;;;4.60;;
2610;SDS011;5612;51.134;17.058;2023-01-01T13:20:59;5.40;;;4.67;;
2610;SDS011;5612;51.134;17.058;2023-01-01T13:23:48;7.37;;;4.53;;
2610;SDS011;5612;51.134;17.058;2023-01-01T13:26:31;5.73;;;4.33;;
2610;SDS011;5612;51.134;17.058;2023-01-01T13:32:00;6.10;;;5.00;;
2610;SDS011;5612;51.134;17.058;2023-01-01T13:34:37;7.40;;;4.97;;
2610;SDS011;5612;51.134;17.058;2023-01-01T13:37:28;7.63;;;4.73;;
2610;SDS011;5612;51.134;17.058;2023-01-01T13:43:26;5.90;;;5.10;;
2610;SDS011;5612;51.134;17.058;2023-01-01T13:45:57;6.47;;;5.50;;
2610;SDS011;5612;51.134;17.058;2023-01-01T13:48:57;6.43;;;5.30;;
2610;SDS011;5612;51.134;17.058;2023-01-01T13:51:59;6.67;;;5.00;;
2610;SDS011;5612;51.134;17.058;2023-01-01T14:01:17;5.90;;;5.40;;
2610;SDS011;5612;51.134;17.058;2023-01-01T14:04:04;5.67;;;5.27;;
2610;SDS011;5612;51.134;17.058;2023-01-01T14:06:40;6.87;;;5.60;;
2610;SDS011;5612;51.134;17.058;2023-01-01T14:09:15;5.20;;;4.70;;
2610;SDS011;5612;51.134;17.058;2023-01-01T14:11:49;5.73;;;5.23;;
2610;SDS011;5612;51.134;17.058;2023-01-01T14:14:21;5.40;;;4.70;;
2610;SDS011;5612;51.134;17.058;2023-01-01T14:16:57;6.20;;;4.83;;
2610;SDS011;5612;51.134;17.058;2023-01-01T14:19:34;5.47;;;4.97;;
2610;SDS011;5612;51.134;17.058;2023-01-01T14:22:09;6.67;;;5.00;;
2610;SDS011;5612;51.134;17.058;2023-01-01T14:24:44;5.37;;;4.87;;
2610;SDS011;5612;51.134;17.058;2023-01-01T14:27:15;5.67;;;5.10;;
2610;SDS011;5612;51.134;17.058;2023-01-01T14:29:48;6.90;;;5.47;;
2610;SDS011;5612;51.134;17.058;2023-01-01T14:32:20;6.20;;;5.00;;
2610;SDS011;5612;51.134;17.058;2023-01-01T14:34:59;6.53;;;5.53;;
2610;SDS011;5612;51.134;17.058;2023-01-01T14:37:29;8.00;;;6.07;;
2610;SDS011;5612;51.134;17.058;2023-01-01T14:40:07;6.03;;;4.87;;
2610;SDS011;5612;51.134;17.058;2023-01-01T14:42:45;6.43;;;5.67;;
2610;SDS011;5612;51.134;17.058;2023-01-01T14:45:16;7.17;;;6.23;;
2610;SDS011;5612;51.134;17.058;2023-01-01T14:47:47;10.10;;;5.37;;
2610;SDS011;5612;51.134;17.058;2023-01-01T14:50:25;5.17;;;4.67;;
2610;SDS011;5612;51.134;17.058;2023-01-01T14:53:00;8.33;;;6.07;;
2610;SDS011;5612;51.134;17.058;2023-01-01T14:55:34;8.37;;;5.83;;
2610;SDS011;5612;51.134;17.058;2023-01-01T14:58:08;8.63;;;5.47;;
2610;SDS011;5612;51.134;17.058;2023-01-01T15:00:43;4.90;;;4.50;;
2610;SDS011;5612;51.134;17.058;2023-01-01T15:03:13;7.00;;;5.57;;
2610;SDS011;5612;51.134;17.058;2023-01-01T15:05:45;6.17;;;5.40;;
2610;SDS011;5612;51.134;17.058;2023-01-01T15:08:25;6.83;;;5.50;;
2610;SDS011;5612;51.134;17.058;2023-01-01T15:10:54;8.57;;;5.60;;
2610;SDS011;5612;51.134;17.058;2023-01-01T15:13:25;9.60;;;6.37;;
2610;SDS011;5612;51.134;17.058;2023-01-01T15:15:55;6.83;;;6.23;;
2610;SDS011;5612;51.134;17.058;2023-01-01T15:18:41;7.30;;;6.07;;
2610;SDS011;5612;51.134;17.058;2023-01-01T15:21:14;10.27;;;6.37;;
2610;SDS011;5612;51.134;17.058;2023-01-01T15:23:47;7.63;;;6.83;;
2610;SDS011;5612;51.134;17.058;2023-01-01T15:26:29;6.97;;;5.80;;
2610;SDS011;5612;51.134;17.058;2023-01-01T15:29:00;9.93;;;7.40;;
2610;SDS011;5612;51.134;17.058;2023-01-01T15:31:35;6.57;;;5.73;;
2610;SDS011;5612;51.134;17.058;2023-01-01T15:34:13;6.03;;;5.33;;
2610;SDS011;5612;51.134;17.058;2023-01-01T15:36:51;7.00;;;6.37;;
2610;SDS011;5612;51.134;17.058;2023-01-01T15:39:21;7.57;;;6.33;;
2610;SDS011;5612;51.134;17.058;2023-01-01T15:41:50;9.90;;;5.80;;
2610;SDS011;5612;51.134;17.058;2023-01-01T15:44:24;6.30;;;5.30;;
2610;SDS011;5612;51.134;17.058;2023-01-01T15:47:02;7.33;;;6.33;;
2610;SDS011;5612;51.134;17.058;2023-01-01T15:49:32;7.13;;;6.43;;
2610;SDS011;5612;51.134;17.058;2023-01-01T15:52:03;7.33;;;5.70;;
2610;SDS011;5612;51.134;17.058;2023-01-01T15:54:43;8.27;;;7.10;;